sensor_id;sensor_type;location;lat;lon;timestamp;temperature;humidity
9448;DHT22;4762;48.128;11.376;2023-03-08T00:00:25;3.60;92.10
9448;DHT22;4762;48.128;11.376;2023-03-08T00:02:27;3.60;91.90
9448;DHT22;4762;48.128;11.376;2023-03-08T00:04:29;3.60;92.30
9448;DHT22;4762;48.128;11.376;2023-03-08T00:06:32;3.50;92.20
9448;DHT22;4762;48.128;11.376;2023-03-08T00:08:34;3.50;92.50
9448;DHT22;4762;48.128;11.376;2023-03-08T00:10:36;3.40;92.80
9448;DHT22;4762;48.128;11.376;2023-03-08T00:12:39;3.40;93.00
9448;DHT22;4762;48.128;11.376;2023-03-08T00:14:41;3.40;92.90
9448;DHT22;4762;48.128;11.376;2023-03-08T00:16:44;3.30;92.90
9448;DHT22;4762;48.128;11.376;2023-03-08T00:18:46;3.20;94.00
9448;DHT22;4762;48.128;11.376;2023-03-08T00:20:57;3.20;94.00
9448;DHT22;4762;48.128;11.376;2023-03-08T00:22:51;3.20;93.90
9448;DHT22;4762;48.128;11.376;2023-03-08T00:24:53;3.20;93.40
9448;DHT22;4762;48.128;11.376;2023-03-08T00:26:56;3.20;93.30
9448;DHT22;4762;48.128;11.376;2023-03-08T00:28:58;3.10;93.90
9448;DHT22;4762;48.128;11.376;2023-03-08T00:31:02;3.00;94.20
9448;DHT22;4762;48.128;11.376;2023-03-08T00:33:03;3.00;94.50
9448;DHT22;4762;48.128;11.376;2023-03-08T00:35:06;3.00;94.20
9448;DHT22;4762;48.128;11.376;2023-03-08T00:37:09;3.00;93.80
9448;DHT22;4762;48.128;11.376;2023-03-08T00:39:11;3.00;93.70
9448;DHT22;4762;48.128;11.376;2023-03-08T00:41:13;3.00;93.90
9448;DHT22;4762;48.128;11.376;2023-03-08T00:43:16;3.00;93.90
9448;DHT22;4762;48.128;11.376;2023-03-08T00:45:18;3.00;93.50
9448;DHT22;4762;48.128;11.376;2023-03-08T00:47:21;3.00;93.00
9448;DHT22;4762;48.128;11.376;2023-03-08T00:49:23;3.10;92.90
9448;DHT22;4762;48.128;11.376;2023-03-08T00:51:25;3.00;93.10
9448;DHT22;4762;48.128;11.376;2023-03-08T00:53:28;3.00;92.40
9448;DHT22;4762;48.128;11.376;2023-03-08T00:55:30;3.00;92.80
9448;DHT22;4762;48.128;11.376;2023-03-08T00:57:33;3.00;93.00
9448;DHT22;4762;48.128;11.376;2023-03-08T00:59:35;3.00;92.80
9448;DHT22;4762;48.128;11.376;2023-03-08T01:01:37;3.00;92.70
9448;DHT22;4762;48.128;11.376;2023-03-08T01:03:40;3.00;93.00
9448;DHT22;4762;48.128;11.376;2023-03-08T01:05:44;2.90;93.00
9448;DHT22;4762;48.128;11.376;2023-03-08T01:07:45;2.80;93.60
9448;DHT22;4762;48.128;11.376;2023-03-08T01:09:47;2.70;94.00
9448;DHT22;4762;48.128;11.376;2023-03-08T01:11:50;2.70;94.40
9448;DHT22;4762;48.128;11.376;2023-03-08T01:13:52;2.60;95.00
9448;DHT22;4762;48.128;11.376;2023-03-08T01:15:55;2.50;95.10
9448;DHT22;4762;48.128;11.376;2023-03-08T01:17:57;2.50;95.20
9448;DHT22;4762;48.128;11.376;2023-03-08T01:19:59;2.50;95.60
9448;DHT22;4762;48.128;11.376;2023-03-08T01:22:07;2.40;95.90
9448;DHT22;4762;48.128;11.376;2023-03-08T01:24:10;2.30;96.70
9448;DHT22;4762;48.128;11.376;2023-03-08T01:26:14;2.30;96.80
9448;DHT22;4762;48.128;11.376;2023-03-08T01:28:15;2.20;97.40
9448;DHT22;4762;48.128;11.376;2023-03-08T01:30:17;2.20;97.60
9448;DHT22;4762;48.128;11.376;2023-03-08T01:32:19;2.10;98.70
9448;DHT22;4762;48.128;11.376;2023-03-08T01:34:22;2.10;98.50
9448;DHT22;4762;48.128;11.376;2023-03-08T01:36:25;2.00;98.90
9448;DHT22;4762;48.128;11.376;2023-03-08T01:38:26;2.10;98.90
9448;DHT22;4762;48.128;11.376;2023-03-08T01:40:28;2.10;99.10
9448;DHT22;4762;48.128;11.376;2023-03-08T01:42:31;2.10;99.20
9448;DHT22;4762;48.128;11.376;2023-03-08T01:46:48;2.00;99.80
9448;DHT22;4762;48.128;11.376;2023-03-08T01:48:53;2.00;99.90
9448;DHT22;4762;48.128;11.376;2023-03-08T01:50:54;1.90;99.90
9448;DHT22;4762;48.128;11.376;2023-03-08T01:52:56;1.80;99.90
9448;DHT22;4762;48.128;11.376;2023-03-08T01:55:00;1.80;99.90
9448;DHT22;4762;48.128;11.376;2023-03-08T01:57:03;1.70;99.90
9448;DHT22;4762;48.128;11.376;2023-03-08T01:59:04;1.70;99.90
9448;DHT22;4762;48.128;11.376;2023-03-08T02:01:07;1.70;99.90
9448;DHT22;4762;48.128;11.376;2023-03-08T02:03:09;1.80;99.90
9448;DHT22;4762;48.128;11.376;2023-03-08T02:05:11;1.80;99.90
9448;DHT22;4762;48.128;11.376;2023-03-08T02:07:13;1.70;99.90
9448;DHT22;4762;48.128;11.376;2023-03-08T02:09:16;1.60;99.90
9448;DHT22;4762;48.128;11.376;2023-03-08T02:11:19;1.50;99.90
9448;DHT22;4762;48.128;11.376;2023-03-08T02:13:21;1.40;99.90
9448;DHT22;4762;48.128;11.376;2023-03-08T02:15:23;1.40;99.90
9448;DHT22;4762;48.128;11.376;2023-03-08T02:17:26;1.40;99.90
9448;DHT22;4762;48.128;11.376;2023-03-08T02:19:45;1.40;99.90
9448;DHT22;4762;48.128;11.376;2023-03-08T02:21:46;1.40;99.90
9448;DHT22;4762;48.128;11.376;2023-03-08T02:23:48;1.40;99.90
9448;DHT22;4762;48.128;11.376;2023-03-08T02:25:53;1.40;99.90
9448;DHT22;4762;48.128;11.376;2023-03-08T02:27:54;1.50;99.90
9448;DHT22;4762;48.128;11.376;2023-03-08T02:29:56;1.60;99.90
9448;DHT22;4762;48.128;11.376;2023-03-08T02:31:59;1.60;99.90
9448;DHT22;4762;48.128;11.376;2023-03-08T02:34:01;1.50;99.90
9448;DHT22;4762;48.128;11.376;2023-03-08T02:36:04;1.50;99.90
9448;DHT22;4762;48.128;11.376;2023-03-08T02:38:06;1.50;99.90
9448;DHT22;4762;48.128;11.376;2023-03-08T02:40:09;1.50;99.90
9448;DHT22;4762;48.128;11.376;2023-03-08T02:42:11;1.50;99.90
9448;DHT22;4762;48.128;11.376;2023-03-08T02:44:14;1.40;99.90
9448;DHT22;4762;48.128;11.376;2023-03-08T02:46:16;1.40;99.90
9448;DHT22;4762;48.128;11.376;2023-03-08T02:48:18;1.40;99.90
9448;DHT22;4762;48.128;11.376;2023-03-08T02:50:20;1.40;99.90
9448;DHT22;4762;48.128;11.376;2023-03-08T02:52:22;1.40;99.90
9448;DHT22;4762;48.128;11.376;2023-03-08T02:54:25;1.30;99.90
9448;DHT22;4762;48.128;11.376;2023-03-08T02:56:27;1.20;99.90
9448;DHT22;4762;48.128;11.376;2023-03-08T02:58:29;1.10;99.90
9448;DHT22;4762;48.128;11.376;2023-03-08T03:00:32;1.10;99.90
9448;DHT22;4762;48.128;11.376;2023-03-08T03:02:34;1.10;99.90
9448;DHT22;4762;48.128;11.376;2023-03-08T03:04:36;1.10;99.90
9448;DHT22;4762;48.128;11.376;2023-03-08T03:06:38;1.10;99.90
9448;DHT22;4762;48.128;11.376;2023-03-08T03:08:40;1.10;99.90
9448;DHT22;4762;48.128;11.376;2023-03-08T03:10:43;1.10;99.90
9448;DHT22;4762;48.128;11.376;2023-03-08T03:12:45;1.00;99.90
9448;DHT22;4762;48.128;11.376;2023-03-08T03:14:47;0.90;99.90
9448;DHT22;4762;48.128;11.376;2023-03-08T03:16:49;1.00;99.90
9448;DHT22;4762;48.128;11.376;2023-03-08T03:18:52;1.00;99.90
9448;DHT22;4762;48.128;11.376;2023-03-08T03:20:54;0.90;99.90
9448;DHT22;4762;48.128;11.376;2023-03-08T03:22:57;1.00;99.90
9448;DHT22;4762;48.128;11.376;2023-03-08T03:24:58;1.00;99.90
9448;DHT22;4762;48.128;11.376;2023-03-08T03:27:01;1.00;99.90
9448;DHT22;4762;48.128;11.376;2023-03-08T03:29:03;0.90;99.90
9448;DHT22;4762;48.128;11.376;2023-03-08T03:31:09;0.80;99.90
9448;DHT22;4762;48.128;11.376;2023-03-08T03:33:10;0.70;99.90
9448;DHT22;4762;48.128;11.376;2023-03-08T03:35:12;0.70;99.90
9448;DHT22;4762;48.128;11.376;2023-03-08T03:37:15;0.70;99.90
9448;DHT22;4762;48.128;11.376;2023-03-08T03:39:17;0.60;99.90
9448;DHT22;4762;48.128;11.376;2023-03-08T03:41:20;0.70;99.90
9448;DHT22;4762;48.128;11.376;2023-03-08T03:43:21;0.60;99.90
9448;DHT22;4762;48.128;11.376;2023-03-08T03:45:26;0.60;99.90
9448;DHT22;4762;48.128;11.376;2023-03-08T03:47:28;0.60;99.90
9448;DHT22;4762;48.128;11.376;2023-03-08T03:49:33;0.60;99.90
9448;DHT22;4762;48.128;11.376;2023-03-08T03:51:36;0.70;99.90
9448;DHT22;4762;48.128;11.376;2023-03-08T03:53:38;0.80;99.90
9448;DHT22;4762;48.128;11.376;2023-03-08T03:55:40;0.90;99.90
9448;DHT22;4762;48.128;11.376;2023-03-08T03:57:42;1.00;99.90
9448;DHT22;4762;48.128;11.376;2023-03-08T03:59:45;1.10;99.90
9448;DHT22;4762;48.128;11.376;2023-03-08T04:01:47;1.10;99.90
9448;DHT22;4762;48.128;11.376;2023-03-08T04:03:49;1.10;99.90
9448;DHT22;4762;48.128;11.376;2023-03-08T04:05:51;1.10;99.90
9448;DHT22;4762;48.128;11.376;2023-03-08T04:07:54;1.10;99.90
9448;DHT22;4762;48.128;11.376;2023-03-08T04:09:56;1.00;99.90
9448;DHT22;4762;48.128;11.376;2023-03-08T04:11:58;1.10;99.90
9448;DHT22;4762;48.128;11.376;2023-03-08T04:14:00;1.10;99.90
9448;DHT22;4762;48.128;11.376;2023-03-08T04:16:11;1.10;99.90
9448;DHT22;4762;48.128;11.376;2023-03-08T04:18:13;1.10;99.90
9448;DHT22;4762;48.128;11.376;2023-03-08T04:20:15;1.20;99.90
9448;DHT22;4762;48.128;11.376;2023-03-08T04:22:17;1.30;99.90
9448;DHT22;4762;48.128;11.376;2023-03-08T04:24:19;1.30;99.90
9448;DHT22;4762;48.128;11.376;2023-03-08T04:26:22;1.30;99.90
9448;DHT22;4762;48.128;11.376;2023-03-08T04:28:24;1.40;99.90
9448;DHT22;4762;48.128;11.376;2023-03-08T04:30:26;1.30;99.90
9448;DHT22;4762;48.128;11.376;2023-03-08T04:32:30;1.30;99.90
9448;DHT22;4762;48.128;11.376;2023-03-08T04:34:31;1.30;99.90
9448;DHT22;4762;48.128;11.376;2023-03-08T04:36:33;1.30;99.90
9448;DHT22;4762;48.128;11.376;2023-03-08T04:38:35;1.30;99.90
9448;DHT22;4762;48.128;11.376;2023-03-08T04:40:37;1.30;99.90
9448;DHT22;4762;48.128;11.376;2023-03-08T04:42:39;1.30;99.90
9448;DHT22;4762;48.128;11.376;2023-03-08T04:44:42;1.30;99.90
9448;DHT22;4762;48.128;11.376;2023-03-08T04:46:44;1.30;99.90
9448;DHT22;4762;48.128;11.376;2023-03-08T04:48:46;1.20;99.90
9448;DHT22;4762;48.128;11.376;2023-03-08T04:50:53;1.20;99.90
9448;DHT22;4762;48.128;11.376;2023-03-08T04:52:54;1.10;99.90
9448;DHT22;4762;48.128;11.376;2023-03-08T04:54:57;1.10;99.90
9448;DHT22;4762;48.128;11.376;2023-03-08T04:56:59;1.00;99.90
9448;DHT22;4762;48.128;11.376;2023-03-08T04:59:01;1.00;99.90
9448;DHT22;4762;48.128;11.376;2023-03-08T05:01:11;1.00;99.90
9448;DHT22;4762;48.128;11.376;2023-03-08T05:03:12;1.00;99.90
9448;DHT22;4762;48.128;11.376;2023-03-08T05:05:15;0.90;99.90
9448;DHT22;4762;48.128;11.376;2023-03-08T05:07:17;0.90;99.90
9448;DHT22;4762;48.128;11.376;2023-03-08T05:09:19;0.90;99.90
9448;DHT22;4762;48.128;11.376;2023-03-08T05:11:23;0.90;99.90
9448;DHT22;4762;48.128;11.376;2023-03-08T05:13:25;0.90;99.90
9448;DHT22;4762;48.128;11.376;2023-03-08T05:15:27;0.90;99.90
9448;DHT22;4762;48.128;11.376;2023-03-08T05:17:29;0.90;99.90
9448;DHT22;4762;48.128;11.376;2023-03-08T05:19:31;0.90;99.90
9448;DHT22;4762;48.128;11.376;2023-03-08T05:21:34;0.90;99.90
9448;DHT22;4762;48.128;11.376;2023-03-08T05:23:36;0.90;99.90
9448;DHT22;4762;48.128;11.376;2023-03-08T05:25:41;0.90;99.90
9448;DHT22;4762;48.128;11.376;2023-03-08T05:27:42;0.90;99.90
9448;DHT22;4762;48.128;11.376;2023-03-08T05:29:44;0.90;99.90
9448;DHT22;4762;48.128;11.376;2023-03-08T05:31:48;0.90;99.90
9448;DHT22;4762;48.128;11.376;2023-03-08T05:33:50;0.90;99.90
9448;DHT22;4762;48.128;11.376;2023-03-08T05:35:51;0.90;99.90
9448;DHT22;4762;48.128;11.376;2023-03-08T05:37:53;0.90;99.90
9448;DHT22;4762;48.128;11.376;2023-03-08T05:39:56;1.00;99.90
9448;DHT22;4762;48.128;11.376;2023-03-08T05:41:58;1.00;99.90
9448;DHT22;4762;48.128;11.376;2023-03-08T05:44:00;1.00;99.90
9448;DHT22;4762;48.128;11.376;2023-03-08T05:46:04;1.10;99.90
9448;DHT22;4762;48.128;11.376;2023-03-08T05:48:06;1.00;99.90
9448;DHT22;4762;48.128;11.376;2023-03-08T05:50:09;1.00;99.90
9448;DHT22;4762;48.128;11.376;2023-03-08T05:52:11;1.00;99.90
9448;DHT22;4762;48.128;11.376;2023-03-08T05:54:13;1.00;99.90
9448;DHT22;4762;48.128;11.376;2023-03-08T05:56:16;1.00;99.90
9448;DHT22;4762;48.128;11.376;2023-03-08T05:58:18;1.00;99.90
9448;DHT22;4762;48.128;11.376;2023-03-08T06:00:21;1.00;99.90
9448;DHT22;4762;48.128;11.376;2023-03-08T06:02:24;1.10;99.90
9448;DHT22;4762;48.128;11.376;2023-03-08T06:04:26;1.10;99.90
9448;DHT22;4762;48.128;11.376;2023-03-08T06:06:28;1.10;99.90
9448;DHT22;4762;48.128;11.376;2023-03-08T06:08:30;1.20;99.90
9448;DHT22;4762;48.128;11.376;2023-03-08T06:10:33;1.20;99.90
9448;DHT22;4762;48.128;11.376;2023-03-08T06:12:35;1.20;99.90
9448;DHT22;4762;48.128;11.376;2023-03-08T06:14:37;1.30;99.90
9448;DHT22;4762;48.128;11.376;2023-03-08T06:16:40;1.30;99.90
9448;DHT22;4762;48.128;11.376;2023-03-08T06:18:43;1.40;99.90
9448;DHT22;4762;48.128;11.376;2023-03-08T06:20:54;1.40;99.90
9448;DHT22;4762;48.128;11.376;2023-03-08T06:22:48;1.50;99.90
9448;DHT22;4762;48.128;11.376;2023-03-08T06:24:50;1.60;99.90
9448;DHT22;4762;48.128;11.376;2023-03-08T06:26:53;1.70;99.90
9448;DHT22;4762;48.128;11.376;2023-03-08T06:28:55;1.80;99.90
9448;DHT22;4762;48.128;11.376;2023-03-08T06:30:57;1.90;99.90
9448;DHT22;4762;48.128;11.376;2023-03-08T06:32:59;2.00;99.90
9448;DHT22;4762;48.128;11.376;2023-03-08T06:35:02;2.10;99.90
9448;DHT22;4762;48.128;11.376;2023-03-08T06:37:04;2.20;99.90
9448;DHT22;4762;48.128;11.376;2023-03-08T06:39:09;2.30;99.90
9448;DHT22;4762;48.128;11.376;2023-03-08T06:41:12;2.30;99.90
9448;DHT22;4762;48.128;11.376;2023-03-08T06:43:14;2.40;99.90
9448;DHT22;4762;48.128;11.376;2023-03-08T06:45:16;2.40;99.90
9448;DHT22;4762;48.128;11.376;2023-03-08T06:47:19;2.50;99.90
9448;DHT22;4762;48.128;11.376;2023-03-08T06:49:21;2.50;99.90
9448;DHT22;4762;48.128;11.376;2023-03-08T06:51:23;2.50;99.90
9448;DHT22;4762;48.128;11.376;2023-03-08T06:53:25;2.60;99.90
9448;DHT22;4762;48.128;11.376;2023-03-08T06:55:28;2.60;99.90
9448;DHT22;4762;48.128;11.376;2023-03-08T06:57:30;2.70;99.90
9448;DHT22;4762;48.128;11.376;2023-03-08T06:59:32;2.70;99.90
9448;DHT22;4762;48.128;11.376;2023-03-08T07:01:34;2.70;99.90
9448;DHT22;4762;48.128;11.376;2023-03-08T07:03:36;2.70;99.90
9448;DHT22;4762;48.128;11.376;2023-03-08T07:05:39;2.70;99.90
9448;DHT22;4762;48.128;11.376;2023-03-08T07:07:42;2.80;99.90
9448;DHT22;4762;48.128;11.376;2023-03-08T07:09:44;2.90;99.90
9448;DHT22;4762;48.128;11.376;2023-03-08T07:11:46;3.00;99.90
9448;DHT22;4762;48.128;11.376;2023-03-08T07:13:49;3.00;99.90
9448;DHT22;4762;48.128;11.376;2023-03-08T07:15:51;3.00;99.90
9448;DHT22;4762;48.128;11.376;2023-03-08T07:17:55;3.10;99.90
9448;DHT22;4762;48.128;11.376;2023-03-08T07:19:57;3.10;99.90
9448;DHT22;4762;48.128;11.376;2023-03-08T07:22:00;3.20;99.90
9448;DHT22;4762;48.128;11.376;2023-03-08T07:24:02;3.20;99.90
9448;DHT22;4762;48.128;11.376;2023-03-08T07:26:05;3.20;99.90
9448;DHT22;4762;48.128;11.376;2023-03-08T07:28:09;3.30;99.90
9448;DHT22;4762;48.128;11.376;2023-03-08T07:30:13;3.40;99.90
9448;DHT22;4762;48.128;11.376;2023-03-08T07:32:16;3.40;99.90
9448;DHT22;4762;48.128;11.376;2023-03-08T07:34:19;3.40;99.90
9448;DHT22;4762;48.128;11.376;2023-03-08T07:36:21;3.60;99.90
9448;DHT22;4762;48.128;11.376;2023-03-08T07:38:26;3.60;99.90
9448;DHT22;4762;48.128;11.376;2023-03-08T07:40:29;3.70;99.90
9448;DHT22;4762;48.128;11.376;2023-03-08T07:42:31;3.70;99.90
9448;DHT22;4762;48.128;11.376;2023-03-08T07:44:34;3.90;99.90
9448;DHT22;4762;48.128;11.376;2023-03-08T07:46:36;4.00;99.90
9448;DHT22;4762;48.128;11.376;2023-03-08T07:48:38;4.20;99.90
9448;DHT22;4762;48.128;11.376;2023-03-08T07:50:42;4.40;99.90
9448;DHT22;4762;48.128;11.376;2023-03-08T07:52:45;4.60;99.90
9448;DHT22;4762;48.128;11.376;2023-03-08T07:54:48;4.60;99.90
9448;DHT22;4762;48.128;11.376;2023-03-08T07:56:51;4.60;99.90
9448;DHT22;4762;48.128;11.376;2023-03-08T07:58:55;4.50;99.90
9448;DHT22;4762;48.128;11.376;2023-03-08T08:00:58;4.60;99.90
9448;DHT22;4762;48.128;11.376;2023-03-08T08:03:02;4.80;99.90
9448;DHT22;4762;48.128;11.376;2023-03-08T08:05:04;5.00;99.90
9448;DHT22;4762;48.128;11.376;2023-03-08T08:07:11;5.00;99.90
9448;DHT22;4762;48.128;11.376;2023-03-08T08:09:13;5.20;99.90
9448;DHT22;4762;48.128;11.376;2023-03-08T08:11:16;5.30;99.90
9448;DHT22;4762;48.128;11.376;2023-03-08T08:13:18;5.30;99.90
9448;DHT22;4762;48.128;11.376;2023-03-08T08:15:22;5.40;99.90
9448;DHT22;4762;48.128;11.376;2023-03-08T08:17:25;5.30;99.90
9448;DHT22;4762;48.128;11.376;2023-03-08T08:19:28;5.50;99.90
9448;DHT22;4762;48.128;11.376;2023-03-08T08:21:31;5.70;99.90
9448;DHT22;4762;48.128;11.376;2023-03-08T08:23:34;6.00;99.90
9448;DHT22;4762;48.128;11.376;2023-03-08T08:25:37;6.10;99.90
9448;DHT22;4762;48.128;11.376;2023-03-08T08:27:39;6.10;99.90
9448;DHT22;4762;48.128;11.376;2023-03-08T08:29:42;5.80;99.90
9448;DHT22;4762;48.128;11.376;2023-03-08T08:31:44;5.70;99.90
9448;DHT22;4762;48.128;11.376;2023-03-08T08:33:47;5.60;99.90
9448;DHT22;4762;48.128;11.376;2023-03-08T08:35:50;5.60;99.90
9448;DHT22;4762;48.128;11.376;2023-03-08T08:37:53;5.60;99.90
9448;DHT22;4762;48.128;11.376;2023-03-08T08:39:55;5.60;99.90
9448;DHT22;4762;48.128;11.376;2023-03-08T08:41:57;5.50;99.90
9448;DHT22;4762;48.128;11.376;2023-03-08T08:44:01;5.50;99.90
9448;DHT22;4762;48.128;11.376;2023-03-08T08:46:05;5.50;99.90
9448;DHT22;4762;48.128;11.376;2023-03-08T08:48:07;5.60;99.40
9448;DHT22;4762;48.128;11.376;2023-03-08T08:50:10;5.50;98.50
9448;DHT22;4762;48.128;11.376;2023-03-08T08:52:12;5.50;99.60
9448;DHT22;4762;48.128;11.376;2023-03-08T08:54:16;5.60;99.40
9448;DHT22;4762;48.128;11.376;2023-03-08T08:56:20;5.60;98.80
9448;DHT22;4762;48.128;11.376;2023-03-08T08:58:22;5.80;97.90
9448;DHT22;4762;48.128;11.376;2023-03-08T09:00:24;5.60;98.50
9448;DHT22;4762;48.128;11.376;2023-03-08T09:02:26;5.70;97.70
9448;DHT22;4762;48.128;11.376;2023-03-08T09:04:30;5.70;98.50
9448;DHT22;4762;48.128;11.376;2023-03-08T09:06:33;5.70;97.70
9448;DHT22;4762;48.128;11.376;2023-03-08T09:08:37;5.70;97.70
9448;DHT22;4762;48.128;11.376;2023-03-08T09:10:40;5.70;97.30
9448;DHT22;4762;48.128;11.376;2023-03-08T09:12:43;5.90;97.60
9448;DHT22;4762;48.128;11.376;2023-03-08T09:14:46;5.80;96.70
9448;DHT22;4762;48.128;11.376;2023-03-08T09:16:49;5.80;97.30
9448;DHT22;4762;48.128;11.376;2023-03-08T09:18:52;5.90;96.90
9448;DHT22;4762;48.128;11.376;2023-03-08T09:20:55;5.80;97.30
9448;DHT22;4762;48.128;11.376;2023-03-08T09:22:57;5.70;99.80
9448;DHT22;4762;48.128;11.376;2023-03-08T09:25:01;5.60;99.90
9448;DHT22;4762;48.128;11.376;2023-03-08T09:27:05;5.60;99.90
9448;DHT22;4762;48.128;11.376;2023-03-08T09:29:06;5.60;99.90
9448;DHT22;4762;48.128;11.376;2023-03-08T09:31:11;5.70;99.90
9448;DHT22;4762;48.128;11.376;2023-03-08T09:33:12;5.80;99.90
9448;DHT22;4762;48.128;11.376;2023-03-08T09:35:14;5.90;99.90
9448;DHT22;4762;48.128;11.376;2023-03-08T09:37:16;6.00;99.50
9448;DHT22;4762;48.128;11.376;2023-03-08T09:39:18;6.20;98.90
9448;DHT22;4762;48.128;11.376;2023-03-08T09:44:13;6.40;96.90
9448;DHT22;4762;48.128;11.376;2023-03-08T09:46:18;6.60;95.80
9448;DHT22;4762;48.128;11.376;2023-03-08T09:48:21;6.70;94.80
9448;DHT22;4762;48.128;11.376;2023-03-08T09:52:50;6.50;93.70
9448;DHT22;4762;48.128;11.376;2023-03-08T09:54:51;6.40;94.40
9448;DHT22;4762;48.128;11.376;2023-03-08T09:56:53;6.60;95.80
9448;DHT22;4762;48.128;11.376;2023-03-08T09:59:00;6.80;98.80
9448;DHT22;4762;48.128;11.376;2023-03-08T10:01:03;7.00;99.20
9448;DHT22;4762;48.128;11.376;2023-03-08T10:03:41;7.30;99.70
9448;DHT22;4762;48.128;11.376;2023-03-08T10:05:26;7.40;97.00
9448;DHT22;4762;48.128;11.376;2023-03-08T10:07:34;7.70;94.80
9448;DHT22;4762;48.128;11.376;2023-03-08T10:09:37;7.40;94.30
9448;DHT22;4762;48.128;11.376;2023-03-08T10:11:44;7.20;96.30
9448;DHT22;4762;48.128;11.376;2023-03-08T10:13:46;7.10;96.10
9448;DHT22;4762;48.128;11.376;2023-03-08T10:15:47;7.20;96.10
9448;DHT22;4762;48.128;11.376;2023-03-08T10:17:53;7.10;97.00
9448;DHT22;4762;48.128;11.376;2023-03-08T10:19:56;7.10;95.00
9448;DHT22;4762;48.128;11.376;2023-03-08T10:21:56;7.10;94.50
9448;DHT22;4762;48.128;11.376;2023-03-08T10:24:01;7.20;93.70
9448;DHT22;4762;48.128;11.376;2023-03-08T10:26:04;7.30;97.60
9448;DHT22;4762;48.128;11.376;2023-03-08T10:28:08;7.40;94.10
9448;DHT22;4762;48.128;11.376;2023-03-08T10:30:13;7.30;93.50
9448;DHT22;4762;48.128;11.376;2023-03-08T10:32:14;7.30;94.30
9448;DHT22;4762;48.128;11.376;2023-03-08T10:34:18;7.40;96.70
9448;DHT22;4762;48.128;11.376;2023-03-08T10:36:20;7.50;99.90
9448;DHT22;4762;48.128;11.376;2023-03-08T10:38:21;7.40;99.90
9448;DHT22;4762;48.128;11.376;2023-03-08T10:40:23;7.40;99.90
9448;DHT22;4762;48.128;11.376;2023-03-08T10:42:26;7.40;99.90
9448;DHT22;4762;48.128;11.376;2023-03-08T10:44:31;7.30;99.90
9448;DHT22;4762;48.128;11.376;2023-03-08T10:46:33;7.30;99.90
9448;DHT22;4762;48.128;11.376;2023-03-08T10:48:35;7.00;99.90
9448;DHT22;4762;48.128;11.376;2023-03-08T10:50:37;6.80;99.90
9448;DHT22;4762;48.128;11.376;2023-03-08T10:52:40;6.80;99.90
9448;DHT22;4762;48.128;11.376;2023-03-08T10:54:42;6.60;99.90
9448;DHT22;4762;48.128;11.376;2023-03-08T10:59:02;6.40;99.90
9448;DHT22;4762;48.128;11.376;2023-03-08T11:01:46;6.40;99.90
9448;DHT22;4762;48.128;11.376;2023-03-08T11:03:22;6.50;99.90
9448;DHT22;4762;48.128;11.376;2023-03-08T11:05:24;6.50;99.90
9448;DHT22;4762;48.128;11.376;2023-03-08T11:07:27;6.50;99.90
9448;DHT22;4762;48.128;11.376;2023-03-08T11:09:29;6.50;99.90
9448;DHT22;4762;48.128;11.376;2023-03-08T11:11:39;6.40;99.90
9448;DHT22;4762;48.128;11.376;2023-03-08T11:13:39;6.20;99.90
9448;DHT22;4762;48.128;11.376;2023-03-08T11:15:41;6.20;99.90
9448;DHT22;4762;48.128;11.376;2023-03-08T11:17:51;6.20;99.90
9448;DHT22;4762;48.128;11.376;2023-03-08T11:19:52;6.20;99.90
9448;DHT22;4762;48.128;11.376;2023-03-08T11:24:28;6.30;99.90
9448;DHT22;4762;48.128;11.376;2023-03-08T11:26:39;6.30;99.90
9448;DHT22;4762;48.128;11.376;2023-03-08T11:29:06;6.20;99.90
9448;DHT22;4762;48.128;11.376;2023-03-08T11:31:18;6.20;99.90
9448;DHT22;4762;48.128;11.376;2023-03-08T11:33:29;6.30;99.90
9448;DHT22;4762;48.128;11.376;2023-03-08T11:35:31;6.40;99.90
9448;DHT22;4762;48.128;11.376;2023-03-08T11:37:40;6.40;99.90
9448;DHT22;4762;48.128;11.376;2023-03-08T11:39:43;6.50;99.90
9448;DHT22;4762;48.128;11.376;2023-03-08T11:41:48;6.60;99.90
9448;DHT22;4762;48.128;11.376;2023-03-08T11:43:59;6.70;99.90
9448;DHT22;4762;48.128;11.376;2023-03-08T11:48:30;7.00;99.90
9448;DHT22;4762;48.128;11.376;2023-03-08T11:50:32;7.10;99.90
9448;DHT22;4762;48.128;11.376;2023-03-08T11:52:48;7.20;99.90
9448;DHT22;4762;48.128;11.376;2023-03-08T11:57:12;7.80;99.90
9448;DHT22;4762;48.128;11.376;2023-03-08T12:01:40;8.10;99.90
9448;DHT22;4762;48.128;11.376;2023-03-08T12:03:42;8.10;99.90
9448;DHT22;4762;48.128;11.376;2023-03-08T12:05:53;8.10;99.90
9448;DHT22;4762;48.128;11.376;2023-03-08T12:07:59;8.20;99.90
9448;DHT22;4762;48.128;11.376;2023-03-08T12:10:14;8.20;99.90
9448;DHT22;4762;48.128;11.376;2023-03-08T12:14:30;8.40;99.90
9448;DHT22;4762;48.128;11.376;2023-03-08T12:16:43;8.40;99.90
9448;DHT22;4762;48.128;11.376;2023-03-08T12:18:47;8.50;99.90
9448;DHT22;4762;48.128;11.376;2023-03-08T12:20:48;8.60;99.90
9448;DHT22;4762;48.128;11.376;2023-03-08T12:22:59;8.70;99.90
9448;DHT22;4762;48.128;11.376;2023-03-08T12:25:06;8.70;99.90
9448;DHT22;4762;48.128;11.376;2023-03-08T12:27:09;8.80;99.90
9448;DHT22;4762;48.128;11.376;2023-03-08T12:29:13;8.90;99.90
9448;DHT22;4762;48.128;11.376;2023-03-08T12:31:35;9.00;99.90
9448;DHT22;4762;48.128;11.376;2023-03-08T12:33:35;9.30;99.90
9448;DHT22;4762;48.128;11.376;2023-03-08T12:35:48;9.40;99.90
9448;DHT22;4762;48.128;11.376;2023-03-08T12:37:39;9.60;99.90
9448;DHT22;4762;48.128;11.376;2023-03-08T12:39:42;9.80;99.90
9448;DHT22;4762;48.128;11.376;2023-03-08T12:41:44;9.90;99.90
9448;DHT22;4762;48.128;11.376;2023-03-08T12:43:48;9.80;99.90
9448;DHT22;4762;48.128;11.376;2023-03-08T12:46:00;9.90;99.90
9448;DHT22;4762;48.128;11.376;2023-03-08T12:48:19;9.90;99.90
9448;DHT22;4762;48.128;11.376;2023-03-08T12:50:20;9.90;99.90
9448;DHT22;4762;48.128;11.376;2023-03-08T12:52:25;9.80;99.90
9448;DHT22;4762;48.128;11.376;2023-03-08T12:54:27;9.70;99.90
9448;DHT22;4762;48.128;11.376;2023-03-08T12:56:35;9.80;99.90
9448;DHT22;4762;48.128;11.376;2023-03-08T12:58:37;9.80;99.90
9448;DHT22;4762;48.128;11.376;2023-03-08T13:00:38;9.90;99.90
9448;DHT22;4762;48.128;11.376;2023-03-08T13:02:40;10.10;99.90
9448;DHT22;4762;48.128;11.376;2023-03-08T13:04:42;10.40;99.90
9448;DHT22;4762;48.128;11.376;2023-03-08T13:06:52;10.60;99.90
9448;DHT22;4762;48.128;11.376;2023-03-08T13:08:49;10.80;99.90
9448;DHT22;4762;48.128;11.376;2023-03-08T13:11:03;10.90;99.90
9448;DHT22;4762;48.128;11.376;2023-03-08T13:15:22;11.10;99.90
9448;DHT22;4762;48.128;11.376;2023-03-08T13:17:37;11.40;99.90
9448;DHT22;4762;48.128;11.376;2023-03-08T13:19:38;11.40;99.90
9448;DHT22;4762;48.128;11.376;2023-03-08T13:21:48;11.50;99.90
9448;DHT22;4762;48.128;11.376;2023-03-08T13:23:51;11.40;99.90
9448;DHT22;4762;48.128;11.376;2023-03-08T13:26:17;11.70;99.90
9448;DHT22;4762;48.128;11.376;2023-03-08T13:28:19;11.50;99.90
9448;DHT22;4762;48.128;11.376;2023-03-08T13:30:23;11.50;99.90
9448;DHT22;4762;48.128;11.376;2023-03-08T13:32:26;11.50;99.90
9448;DHT22;4762;48.128;11.376;2023-03-08T13:34:29;11.50;99.90
9448;DHT22;4762;48.128;11.376;2023-03-08T13:36:32;11.90;99.90
9448;DHT22;4762;48.128;11.376;2023-03-08T13:38:35;11.60;99.90
9448;DHT22;4762;48.128;11.376;2023-03-08T13:40:36;11.60;99.90
9448;DHT22;4762;48.128;11.376;2023-03-08T13:42:38;11.50;99.90
9448;DHT22;4762;48.128;11.376;2023-03-08T13:44:43;11.60;99.90
9448;DHT22;4762;48.128;11.376;2023-03-08T13:46:47;11.60;99.90